createdAt,value
2019-04-21T00:01:08.777Z,97298.84
2019-04-21T00:02:21.336Z,97298.61
2019-04-21T00:03:27.488Z,97294.09
2019-04-21T00:04:43.225Z,97299.95
2019-04-21T00:05:58.168Z,97291.05
2019-04-21T00:07:11.690Z,97292.12
2019-04-21T00:08:27.530Z,97289.75
2019-04-21T00:09:33.707Z,97292.63
2019-04-21T00:10:40.598Z,97296.67
2019-04-21T00:11:54.163Z,97291.20
2019-04-21T00:12:52.015Z,97290.14
2019-04-21T00:13:56.067Z,97289.78
2019-04-21T00:15:02.212Z,97292.64
2019-04-21T00:16:06.729Z,97289.46
2019-04-21T00:17:15.369Z,97287.09
2019-04-21T00:18:39.768Z,97288.16
2019-04-21T00:19:43.004Z,97285.10
2019-04-21T00:20:55.208Z,97281.06
2019-04-21T00:22:09.938Z,97277.38
2019-04-21T00:23:24.250Z,97275.72
2019-04-21T00:24:32.359Z,97275.95
2019-04-21T00:25:38.857Z,97277.89
2019-04-21T00:26:55.670Z,97278.13
2019-04-21T00:28:04.712Z,97274.80
2019-04-21T00:29:22.565Z,97272.78
2019-04-21T00:30:21.366Z,97271.23
2019-04-21T00:31:28.498Z,97268.73
2019-04-21T00:32:35.269Z,97269.48
2019-04-21T00:33:34.321Z,97266.16
2019-04-21T00:34:47.453Z,97267.22
2019-04-21T00:35:57.726Z,97262.59
2019-04-21T00:37:11.269Z,97267.09
2019-04-21T00:38:24.952Z,97259.88
2019-04-21T00:39:43.650Z,97256.64
2019-04-21T00:40:50.429Z,97257.70
2019-04-21T00:41:55.839Z,97262.57
2019-04-21T00:42:59.910Z,97259.72
2019-04-21T00:44:04.497Z,97258.32
2019-04-21T00:45:16.553Z,97253.22
2019-04-21T00:46:27.979Z,97258.08
2019-04-21T00:47:45.820Z,97254.75
2019-04-21T00:48:47.692Z,97253.56
2019-04-21T00:50:02.259Z,97248.58
2019-04-21T00:52:45.628Z,97250.62
2019-04-21T00:53:53.426Z,97248.23
2019-04-21T00:55:07.705Z,97243.59
2019-04-21T00:56:08.964Z,97249.91
2019-04-21T00:57:18.078Z,97249.66
2019-04-21T00:58:35.959Z,97244.31
2019-04-21T00:59:40.073Z,97241.93
2019-04-21T01:00:46.359Z,97239.23
2019-04-21T01:01:55.149Z,97237.79
2019-04-21T01:03:08.399Z,97240.15
2019-04-21T01:04:16.899Z,97238.75
2019-04-21T01:05:22.522Z,97244.66
2019-04-21T01:06:35.918Z,97240.73
2019-04-21T01:07:41.629Z,97243.59
2019-04-21T01:08:47.131Z,97242.16
2019-04-21T01:09:54.570Z,97241.43
2019-04-21T01:11:02.225Z,97240.35
2019-04-21T01:12:19.350Z,97240.61
2019-04-21T01:13:27.792Z,97239.89
2019-04-21T01:14:45.525Z,97233.84
2019-04-21T01:15:48.876Z,97239.05
2019-04-21T01:16:58.209Z,97232.62
2019-04-21T01:18:04.501Z,97233.09
2019-04-21T01:19:12.090Z,97234.86
2019-04-21T01:20:13.302Z,97235.81
2019-04-21T01:21:14.009Z,97237.70
2019-04-21T01:22:16.864Z,97235.56
2019-04-21T01:23:25.477Z,97233.53
2019-04-21T01:24:37.634Z,97231.88
2019-04-21T01:25:55.454Z,97234.95
2019-04-21T01:27:00.999Z,97230.35
2019-04-21T01:28:23.266Z,97228.69
2019-04-21T01:29:35.696Z,97229.27
2019-04-21T01:30:39.919Z,97225.94
2019-04-21T01:31:41.636Z,97226.53
2019-04-21T01:33:04.194Z,97224.97
2019-04-21T01:34:03.305Z,97223.45
2019-04-21T01:35:15.084Z,97225.33
2019-04-21T01:36:18.121Z,97225.45
2019-04-21T01:37:40.910Z,97228.73
2019-04-21T01:39:02.109Z,97222.81
2019-04-21T01:39:58.491Z,97230.73
2019-04-21T01:41:02.230Z,97224.00
2019-04-21T01:42:09.417Z,97216.77
2019-04-21T01:43:17.529Z,97226.10
2019-04-21T01:44:39.110Z,97224.08
2019-04-21T01:45:41.028Z,97225.59
2019-04-21T01:46:40.737Z,97229.28
2019-04-21T01:47:54.972Z,97225.13
2019-04-21T01:48:58.084Z,97228.67
2019-04-21T01:50:02.554Z,97233.98
2019-04-21T01:51:22.238Z,97222.84
2019-04-21T01:52:44.142Z,97228.16
2019-04-21T01:54:04.005Z,97224.36
2019-04-21T01:55:19.496Z,97231.84
2019-04-21T01:56:40.568Z,97226.95
2019-04-21T01:58:21.052Z,97222.80
2019-04-21T01:59:30.618Z,97223.12
2019-04-21T02:00:54.365Z,97219.06
2019-04-21T02:01:52.417Z,97217.03
2019-04-21T02:03:10.699Z,97223.54
2019-04-21T02:04:14.060Z,97216.20
2019-04-21T02:06:39.514Z,97225.31
2019-04-21T02:07:38.954Z,97221.18
2019-04-21T02:08:52.546Z,97215.25
2019-04-21T02:10:05.034Z,97223.16
2019-04-21T02:11:12.301Z,97217.59
2019-04-21T02:12:19.531Z,97212.97
2019-04-21T02:13:23.157Z,97216.58
2019-04-21T02:14:40.891Z,97213.25
2019-04-21T02:15:48.858Z,97210.78
2019-04-21T02:16:55.203Z,97212.20
2019-04-21T02:17:59.358Z,97212.41
2019-04-21T02:19:08.316Z,97206.95
2019-04-21T02:20:11.991Z,97210.13
2019-04-21T02:21:21.814Z,97208.09
2019-04-21T02:22:46.756Z,97210.36
2019-04-21T02:23:53.833Z,97202.30
2019-04-21T02:25:02.849Z,97209.73
2019-04-21T02:26:12.687Z,97202.51
2019-04-21T02:27:16.084Z,97201.78
2019-04-21T02:28:33.560Z,97203.66
2019-04-21T02:29:37.620Z,97201.99
2019-04-21T02:30:55.261Z,97207.80
2019-04-21T02:32:18.024Z,97208.38
2019-04-21T02:33:18.673Z,97204.21
2019-04-21T02:34:16.619Z,97209.98
2019-04-21T02:36:52.932Z,97208.06
2019-04-21T02:37:55.534Z,97204.27
2019-04-21T02:40:22.338Z,97212.30
2019-04-21T02:41:13.155Z,97209.81
2019-04-21T02:42:34.362Z,97206.01
2019-04-21T02:44:43.284Z,97199.34
2019-04-21T02:46:02.137Z,97203.72
2019-04-21T02:47:19.122Z,97200.05
2019-04-21T02:48:08.795Z,97195.42
2019-04-21T02:49:22.955Z,97190.33
2019-04-21T02:50:28.737Z,97196.56
2019-04-21T02:52:43.877Z,97198.44
2019-04-21T02:55:03.320Z,97193.11
2019-04-21T02:57:15.840Z,97196.28
2019-04-21T03:01:46.362Z,97194.19
2019-04-21T03:04:34.887Z,97191.50
2019-04-21T03:05:51.149Z,97188.27
2019-04-21T03:08:14.777Z,97180.34
2019-04-21T03:09:24.109Z,97178.69
2019-04-21T03:11:45.544Z,97178.45
2019-04-21T03:12:45.870Z,97170.19
2019-04-21T03:14:05.947Z,97172.89
2019-04-21T03:16:23.341Z,97166.03
2019-04-21T03:17:35.839Z,97164.83
2019-04-21T03:18:45.878Z,97167.89
2019-04-21T03:21:00.624Z,97157.23
2019-04-21T03:22:13.000Z,97159.00
2019-04-21T03:23:20.975Z,97161.70
2019-04-21T03:24:24.446Z,97161.23
2019-04-21T03:26:48.436Z,97157.54
2019-04-21T03:27:58.581Z,97156.38
2019-04-21T03:30:19.952Z,97161.30
2019-04-21T03:31:59.735Z,97160.67
2019-04-21T03:35:19.314Z,97159.34
2019-04-21T03:38:14.823Z,97162.69
2019-04-21T03:39:18.345Z,97164.09
2019-04-21T03:40:18.836Z,97155.56
2019-04-21T03:41:39.688Z,97156.86
2019-04-21T03:45:08.490Z,97157.20
2019-04-21T03:46:16.390Z,97157.29
2019-04-21T03:49:47.558Z,97151.83
2019-04-21T03:51:04.298Z,97151.93
2019-04-21T03:52:09.058Z,97151.20
2019-04-21T03:53:09.661Z,97146.47
2019-04-21T03:54:16.085Z,97146.94
2019-04-21T03:56:59.239Z,97147.13
2019-04-21T03:58:05.120Z,97145.23
2019-04-21T04:00:31.819Z,97152.28
2019-04-21T04:01:26.002Z,97149.78
2019-04-21T04:03:23.543Z,97145.52
2019-04-21T04:04:31.937Z,97149.14
2019-04-21T04:07:25.236Z,97148.46
2019-04-21T04:10:50.372Z,97149.12
2019-04-21T04:13:05.457Z,97146.38
2019-04-21T04:15:22.850Z,97146.48
2019-04-21T04:16:28.763Z,97147.41
2019-04-21T04:17:34.440Z,97149.27
2019-04-21T04:19:56.502Z,97141.67
2019-04-21T04:22:15.107Z,97145.66
2019-04-21T04:23:28.685Z,97143.66
2019-04-21T04:25:35.475Z,97145.52
2019-04-21T04:26:50.998Z,97143.02
2019-04-21T04:29:24.527Z,97143.95
2019-04-21T04:30:22.410Z,97141.91
2019-04-21T04:31:32.061Z,97148.77
2019-04-21T04:32:36.458Z,97144.04
2019-04-21T04:33:50.209Z,97147.94
2019-04-21T04:34:57.227Z,97140.61
2019-04-21T04:36:13.061Z,97141.08
2019-04-21T04:38:24.160Z,97139.05
2019-04-21T04:40:10.914Z,97148.95
2019-04-21T04:43:40.940Z,97142.77
2019-04-21T04:45:53.621Z,97134.71
2019-04-21T04:47:15.586Z,97138.97
2019-04-21T04:48:11.175Z,97136.84
2019-04-21T04:49:36.411Z,97141.56
2019-04-21T04:50:45.470Z,97144.25
2019-04-21T04:52:09.638Z,97144.72
2019-04-21T04:52:48.584Z,97136.94
2019-04-21T04:54:26.633Z,97142.13
2019-04-21T04:55:08.861Z,97135.30
2019-04-21T04:56:18.175Z,97139.66
2019-04-21T04:59:11.615Z,97142.71
2019-04-21T04:59:49.496Z,97137.98
2019-04-21T05:02:15.083Z,97137.16
2019-04-21T05:03:18.461Z,97139.75
2019-04-21T05:04:23.831Z,97134.20
2019-04-21T05:05:30.070Z,97135.03
2019-04-21T05:07:50.468Z,97134.56
2019-04-21T05:09:59.405Z,97135.77
2019-04-21T05:11:26.108Z,97140.83
2019-04-21T05:12:16.329Z,97140.83
2019-04-21T05:13:35.273Z,97134.71
2019-04-21T05:14:39.279Z,97130.82
2019-04-21T05:15:50.333Z,97131.19
2019-04-21T05:17:19.555Z,97131.56
2019-04-21T05:18:08.697Z,97132.39
2019-04-21T05:19:16.131Z,97136.66
2019-04-21T05:20:29.852Z,97133.23
2019-04-21T05:21:34.217Z,97133.13
2019-04-21T05:22:35.466Z,97136.66
2019-04-21T05:23:44.168Z,97141.75
2019-04-21T05:24:51.051Z,97139.15
2019-04-21T05:25:53.394Z,97137.86
2019-04-21T05:27:08.666Z,97139.15
2019-04-21T05:28:15.135Z,97139.98
2019-04-21T05:29:36.288Z,97136.66
2019-04-21T05:30:57.218Z,97143.59
2019-04-21T05:32:13.387Z,97136.47
2019-04-21T05:33:34.541Z,97137.06
2019-04-21T05:34:41.778Z,97135.13
2019-04-21T05:36:10.871Z,97141.42
2019-04-21T05:37:27.219Z,97144.11
2019-04-21T05:38:31.584Z,97145.41
2019-04-21T05:39:57.952Z,97145.88
2019-04-21T05:41:00.152Z,97143.18
2019-04-21T05:42:03.940Z,97144.02
2019-04-21T05:43:28.085Z,97151.33
2019-04-21T05:44:43.098Z,97145.13
2019-04-21T05:45:47.460Z,97150.95
2019-04-21T05:47:07.892Z,97150.36
2019-04-21T05:48:17.882Z,97159.81
2019-04-21T05:49:25.292Z,97149.34
2019-04-21T05:50:28.006Z,97153.88
2019-04-21T05:51:57.044Z,97147.30
2019-04-21T05:53:08.480Z,97154.46
2019-04-21T05:54:23.040Z,97150.44
2019-04-21T05:56:35.433Z,97148.86
2019-04-21T05:57:46.305Z,97147.47
2019-04-21T05:58:58.090Z,97150.23
2019-04-21T06:00:01.191Z,97144.83
2019-04-21T06:01:31.514Z,97152.42
2019-04-21T06:02:38.478Z,97150.09
2019-04-21T06:03:41.023Z,97152.50
2019-04-21T06:05:10.429Z,97153.70
2019-04-21T06:07:07.527Z,97151.62
2019-04-21T06:08:12.916Z,97148.83
2019-04-21T06:09:21.309Z,97148.73
2019-04-21T06:10:38.363Z,97151.23
2019-04-21T06:11:36.024Z,97149.84
2019-04-21T06:12:52.219Z,97153.13
2019-04-21T06:14:01.535Z,97148.68
2019-04-21T06:15:10.451Z,97155.07
2019-04-21T06:16:17.812Z,97152.38
2019-04-21T06:17:31.562Z,97149.59
2019-04-21T06:18:44.922Z,97152.45
2019-04-21T06:20:54.678Z,97151.39
2019-04-21T06:22:01.687Z,97152.59
2019-04-21T06:23:13.559Z,97152.03
2019-04-21T06:24:15.711Z,97153.23
2019-04-21T06:25:54.608Z,97151.36
2019-04-21T06:27:49.258Z,97143.37
2019-04-21T06:29:13.352Z,97142.31
2019-04-21T06:30:03.976Z,97142.58
2019-04-21T06:31:30.269Z,97140.72
2019-04-21T06:33:35.642Z,97137.92
2019-04-21T06:35:02.513Z,97134.77
2019-04-21T06:37:43.218Z,97134.06
2019-04-21T06:39:11.986Z,97141.25
2019-04-21T06:41:13.424Z,97133.00
2019-04-21T06:42:14.993Z,97126.73
2019-04-21T06:44:43.485Z,97122.91
2019-04-21T06:45:48.852Z,97135.13
2019-04-21T06:47:02.639Z,97136.19
2019-04-21T06:48:04.657Z,97128.09
2019-04-21T06:49:06.809Z,97126.03
2019-04-21T06:50:24.220Z,97131.64
2019-04-21T06:53:56.037Z,97125.97
2019-04-21T06:54:56.085Z,97122.59
2019-04-21T06:56:08.196Z,97123.44
2019-04-21T06:57:18.218Z,97128.23
2019-04-21T06:58:18.374Z,97121.28
2019-04-21T06:59:30.090Z,97122.52
2019-04-21T07:00:37.134Z,97120.30
2019-04-21T07:01:50.435Z,97123.64
2019-04-21T07:03:11.500Z,97123.22
2019-04-21T07:05:22.828Z,97119.73
2019-04-21T07:06:30.546Z,97116.34
2019-04-21T07:07:40.554Z,97117.29
2019-04-21T07:08:54.937Z,97120.03
2019-04-21T07:09:57.189Z,97118.88
2019-04-21T07:11:02.359Z,97113.79
2019-04-21T07:12:07.547Z,97112.19
2019-04-21T07:13:14.060Z,97114.33
2019-04-21T07:15:38.764Z,97112.73
2019-04-21T07:16:51.011Z,97113.56
2019-04-21T07:17:59.458Z,97114.06
2019-04-21T07:19:13.225Z,97107.08
2019-04-21T07:20:15.889Z,97110.65
2019-04-21T07:21:25.211Z,97112.78
2019-04-21T07:22:40.232Z,97116.70
2019-04-21T07:23:45.865Z,97109.39
2019-04-21T07:24:53.602Z,97108.55
2019-04-21T07:26:01.369Z,97109.76
2019-04-21T07:27:13.412Z,97104.06
2019-04-21T07:28:22.028Z,97108.34
2019-04-21T07:29:32.549Z,97107.50
2019-04-21T07:30:38.042Z,97104.47
2019-04-21T07:31:54.133Z,97101.84
2019-04-21T07:33:07.294Z,97101.73
2019-04-21T07:34:07.853Z,97105.27
2019-04-21T07:35:08.315Z,97100.55
2019-04-21T07:36:30.851Z,97098.41
2019-04-21T07:37:30.507Z,97099.22
2019-04-21T07:38:39.867Z,97103.97
2019-04-21T07:39:47.680Z,97102.16
2019-04-21T07:40:54.714Z,97105.25
2019-04-21T07:42:06.871Z,97103.56
2019-04-21T07:43:15.228Z,97105.93
2019-04-21T07:44:20.343Z,97098.34
2019-04-21T07:45:27.619Z,97099.29
2019-04-21T07:46:30.045Z,97095.81
2019-04-21T07:47:53.461Z,97093.33
2019-04-21T07:49:06.616Z,97090.35
2019-04-21T07:50:27.364Z,97095.54
2019-04-21T07:51:52.165Z,97095.09
2019-04-21T07:53:09.362Z,97091.13
2019-04-21T07:54:18.702Z,97093.27
2019-04-21T07:56:19.947Z,97091.08
2019-04-21T07:57:36.818Z,97096.05
2019-04-21T07:58:53.427Z,97091.13
2019-04-21T08:00:16.606Z,97089.69
2019-04-21T08:01:11.696Z,97090.95
2019-04-21T08:02:18.800Z,97086.89
2019-04-21T08:03:30.395Z,97090.16
2019-04-21T08:05:45.763Z,97082.81
2019-04-21T08:06:52.427Z,97080.02
2019-04-21T08:07:55.803Z,97080.73
2019-04-21T08:09:08.921Z,97079.23
2019-04-21T08:10:15.767Z,97075.28
2019-04-21T08:11:27.108Z,97072.13
2019-04-21T08:12:30.525Z,97077.67
2019-04-21T08:13:48.524Z,97079.27
2019-04-21T08:15:01.489Z,97074.83
2019-04-21T08:16:04.675Z,97071.31
2019-04-21T08:17:16.232Z,97074.36
2019-04-21T08:18:28.727Z,97071.14
2019-04-21T08:19:32.197Z,97076.91
2019-04-21T08:20:44.158Z,97076.17
2019-04-21T08:21:59.862Z,97074.25
2019-04-21T08:23:02.541Z,97070.42
2019-04-21T08:24:13.401Z,97072.13
2019-04-21T08:25:14.940Z,97070.78
2019-04-21T08:26:33.782Z,97067.25
2019-04-21T08:27:40.405Z,97068.89
2019-04-21T08:28:45.546Z,97065.09
2019-04-21T08:29:58.199Z,97062.30
2019-04-21T08:31:01.820Z,97064.83
2019-04-21T08:32:21.457Z,97067.40
2019-04-21T08:34:34.795Z,97065.25
2019-04-21T08:36:14.444Z,97069.73
2019-04-21T08:36:44.734Z,97069.65
2019-04-21T08:37:59.108Z,97061.39
2019-04-21T08:39:07.244Z,97063.43
2019-04-21T08:40:24.932Z,97058.75
2019-04-21T08:41:23.084Z,97064.06
2019-04-21T08:42:35.158Z,97060.20
2019-04-21T08:44:54.188Z,97061.87
2019-04-21T08:46:01.557Z,97059.28
2019-04-21T08:47:12.604Z,97055.28
2019-04-21T08:48:18.269Z,97053.39
2019-04-21T08:49:28.144Z,97051.18
2019-04-21T08:50:41.459Z,97051.94
2019-04-21T08:51:50.409Z,97050.17
2019-04-21T08:52:58.372Z,97047.13
2019-04-21T08:54:09.049Z,97052.61
2019-04-21T08:55:32.049Z,97046.81
2019-04-21T08:56:54.683Z,97051.66
2019-04-21T08:58:25.701Z,97056.28
2019-04-21T08:59:45.287Z,97048.61
2019-04-21T09:01:06.641Z,97048.33
2019-04-21T09:02:14.472Z,97051.81
2019-04-21T09:03:44.686Z,97048.27
2019-04-21T09:04:47.307Z,97049.67
2019-04-21T09:05:57.127Z,97047.05
2019-04-21T09:07:30.389Z,97048.39
2019-04-21T09:08:19.506Z,97045.19
2019-04-21T09:09:29.407Z,97040.98
2019-04-21T09:10:42.244Z,97044.84
2019-04-21T09:11:47.295Z,97039.80
2019-04-21T09:12:53.472Z,97039.56
2019-04-21T09:14:07.564Z,97042.21
2019-04-21T09:15:13.892Z,97038.81
2019-04-21T09:16:20.808Z,97039.34
2019-04-21T09:17:25.096Z,97034.59
2019-04-21T09:18:32.442Z,97031.83
2019-04-21T09:19:57.928Z,97028.42
2019-04-21T09:20:58.463Z,97036.00
2019-04-21T09:22:05.607Z,97028.66
2019-04-21T09:23:18.106Z,97028.33
2019-04-21T09:24:42.910Z,97028.37
2019-04-21T09:25:44.687Z,97030.59
2019-04-21T09:26:40.647Z,97023.55
2019-04-21T09:27:46.759Z,97016.54
2019-04-21T09:28:52.100Z,97020.86
2019-04-21T09:29:57.712Z,97012.50
2019-04-21T09:31:04.828Z,97019.45
2019-04-21T09:32:16.669Z,97016.67
2019-04-21T09:33:20.846Z,97020.17
2019-04-21T09:34:35.936Z,97016.91
2019-04-21T09:35:40.679Z,97017.47
2019-04-21T09:36:51.201Z,97008.61
2019-04-21T09:38:02.175Z,97010.78
2019-04-21T09:39:13.002Z,97007.20
2019-04-21T09:40:16.906Z,97004.91
2019-04-21T09:41:25.953Z,97001.18
2019-04-21T09:42:40.984Z,97003.84
2019-04-21T09:43:47.389Z,97006.81
2019-04-21T09:44:55.670Z,97003.53
2019-04-21T09:46:01.828Z,96997.48
2019-04-21T09:47:11.037Z,96994.54
2019-04-21T09:48:22.166Z,96996.83
2019-04-21T09:49:31.716Z,96996.52
2019-04-21T09:50:38.290Z,96993.24
2019-04-21T09:51:46.128Z,96986.36
2019-04-21T09:52:58.703Z,96989.50
2019-04-21T09:54:08.749Z,96986.04
2019-04-21T09:55:17.510Z,96986.40
2019-04-21T09:56:31.540Z,96987.73
2019-04-21T09:57:38.195Z,96975.39
2019-04-21T09:58:44.608Z,96970.14
2019-04-21T09:59:57.085Z,96968.36
2019-04-21T10:01:05.180Z,96967.86
2019-04-21T10:02:11.628Z,96972.16
2019-04-21T10:03:16.252Z,96967.92
2019-04-21T10:04:23.677Z,96966.75
2019-04-21T10:05:31.686Z,96963.62
2019-04-21T10:06:39.545Z,96966.77
2019-04-21T10:07:46.810Z,96967.61
2019-04-21T10:09:00.955Z,96965.63
2019-04-21T10:10:03.821Z,96961.86
2019-04-21T10:11:14.150Z,96971.07
2019-04-21T10:12:21.508Z,96965.95
2019-04-21T10:13:29.588Z,96960.21
2019-04-21T10:14:36.843Z,96957.56
2019-04-21T10:15:46.304Z,96956.75
2019-04-21T10:17:13.091Z,96957.59
2019-04-21T10:18:21.687Z,96951.30
2019-04-21T10:19:29.768Z,96950.31
2019-04-21T10:20:38.474Z,96948.80
2019-04-21T10:21:46.591Z,96953.88
2019-04-21T10:22:55.324Z,96947.28
2019-04-21T10:24:03.803Z,96948.07
2019-04-21T10:25:12.989Z,96944.73
2019-04-21T10:26:20.231Z,96938.00
2019-04-21T10:27:27.482Z,96943.09
2019-04-21T10:28:35.141Z,96940.42
2019-04-21T10:29:44.564Z,96938.59
2019-04-21T10:30:51.272Z,96943.21
2019-04-21T10:31:59.595Z,96942.34
2019-04-21T10:33:08.400Z,96938.88
2019-04-21T10:34:17.015Z,96934.41
2019-04-21T10:35:26.179Z,96932.88
2019-04-21T10:36:33.594Z,96932.86
2019-04-21T10:37:49.829Z,96926.25
2019-04-21T10:38:52.255Z,96930.33
2019-04-21T10:40:00.008Z,96924.38
2019-04-21T10:41:07.886Z,96926.82
2019-04-21T10:42:15.538Z,96923.96
2019-04-21T10:43:24.353Z,96918.83
2019-04-21T10:44:31.714Z,96919.02
2019-04-21T10:45:39.209Z,96922.16
2019-04-21T10:46:50.293Z,96920.34
2019-04-21T10:47:58.696Z,96920.84
2019-04-21T10:49:06.456Z,96913.73
2019-04-21T10:50:16.163Z,96915.55
2019-04-21T10:51:23.577Z,96913.41
2019-04-21T10:52:50.949Z,96912.59
2019-04-21T10:53:59.770Z,96916.88
2019-04-21T10:55:26.345Z,96914.55
2019-04-21T10:56:25.116Z,96916.19
2019-04-21T10:57:28.439Z,96917.38
2019-04-21T10:58:38.361Z,96913.19
2019-04-21T10:59:47.946Z,96908.69
2019-04-21T11:01:02.054Z,96904.47
2019-04-21T11:02:14.744Z,96903.05
2019-04-21T11:03:33.256Z,96907.90
2019-04-21T11:04:42.269Z,96899.20
2019-04-21T11:05:50.747Z,96901.17
2019-04-21T11:07:06.788Z,96896.65
2019-04-21T11:08:20.457Z,96898.44
2019-04-21T11:09:16.260Z,96894.15
2019-04-21T11:10:23.490Z,96890.86
2019-04-21T11:11:32.004Z,96888.92
2019-04-21T11:12:40.975Z,96893.06
2019-04-21T11:13:48.525Z,96895.53
2019-04-21T11:14:56.898Z,96895.53
2019-04-21T11:16:05.483Z,96889.59
2019-04-21T11:17:14.169Z,96894.24
2019-04-21T11:18:21.947Z,96891.42
2019-04-21T11:19:30.722Z,96885.98
2019-04-21T11:20:38.090Z,96886.66
2019-04-21T11:21:45.316Z,96888.19
2019-04-21T11:22:53.646Z,96887.87
2019-04-21T11:24:01.898Z,96881.44
2019-04-21T11:25:09.516Z,96876.33
2019-04-21T11:26:18.138Z,96871.86
2019-04-21T11:27:26.729Z,96866.72
2019-04-21T11:28:34.655Z,96878.05
2019-04-21T11:29:43.216Z,96866.30
2019-04-21T11:30:51.021Z,96876.45
2019-04-21T11:31:58.971Z,96870.96
2019-04-21T11:33:07.010Z,96875.15
2019-04-21T11:34:15.477Z,96873.61
2019-04-21T11:35:23.387Z,96869.08
2019-04-21T11:36:31.362Z,96869.53
2019-04-21T11:37:39.839Z,96867.53
2019-04-21T11:39:08.646Z,96873.65
2019-04-21T11:40:09.166Z,96872.14
2019-04-21T11:41:13.801Z,96865.03
2019-04-21T11:42:30.128Z,96859.84
2019-04-21T11:43:37.413Z,96859.81
2019-04-21T11:44:45.045Z,96855.80
2019-04-21T11:45:52.646Z,96854.41
2019-04-21T11:47:00.522Z,96857.50
2019-04-21T11:48:28.434Z,96862.28
2019-04-21T11:49:36.985Z,96858.06
2019-04-21T11:50:44.296Z,96856.33
2019-04-21T11:51:51.535Z,96847.25
2019-04-21T11:52:59.035Z,96849.59
2019-04-21T11:54:06.860Z,96856.75
2019-04-21T11:55:14.332Z,96849.86
2019-04-21T11:56:22.980Z,96850.50
2019-04-21T11:57:35.040Z,96845.52
2019-04-21T11:58:41.534Z,96846.52
2019-04-21T11:59:48.942Z,96855.84
2019-04-21T12:01:00.094Z,96854.89
2019-04-21T12:02:07.924Z,96843.69
2019-04-21T12:03:16.920Z,96845.20
2019-04-21T12:04:25.202Z,96843.69
2019-04-21T12:05:33.057Z,96838.72
2019-04-21T12:06:44.453Z,96838.50
2019-04-21T12:07:49.380Z,96836.80
2019-04-21T12:09:00.756Z,96840.96
2019-04-21T12:10:05.960Z,96834.34
2019-04-21T12:11:13.717Z,96829.17
2019-04-21T12:12:21.365Z,96841.36
2019-04-21T12:13:29.924Z,96838.44
2019-04-21T12:14:37.356Z,96833.38
2019-04-21T12:15:45.146Z,96830.59
2019-04-21T12:16:53.006Z,96838.52
2019-04-21T12:18:01.690Z,96831.23
2019-04-21T12:19:09.246Z,96829.48
2019-04-21T12:20:16.803Z,96824.11
2019-04-21T12:21:25.260Z,96823.01
2019-04-21T12:22:34.037Z,96824.27
2019-04-21T12:23:42.731Z,96823.26
2019-04-21T12:24:51.289Z,96819.28
2019-04-21T12:25:59.091Z,96818.02
2019-04-21T12:27:07.797Z,96802.68
2019-04-21T12:28:15.944Z,96813.06
2019-04-21T12:29:24.843Z,96814.33
2019-04-21T12:30:33.288Z,96812.27
2019-04-21T12:31:59.429Z,96811.14
2019-04-21T12:33:16.251Z,96809.31
2019-04-21T12:34:23.792Z,96801.70
2019-04-21T12:35:31.032Z,96801.13
2019-04-21T12:36:38.287Z,96799.86
2019-04-21T12:37:48.918Z,96802.59
2019-04-21T12:39:00.074Z,96800.00
2019-04-21T12:40:06.455Z,96805.33
2019-04-21T12:41:15.321Z,96804.09
2019-04-21T12:42:22.864Z,96794.88
2019-04-21T12:43:31.234Z,96799.85
2019-04-21T12:44:39.138Z,96794.42
2019-04-21T12:45:46.550Z,96787.80
2019-04-21T12:46:54.085Z,96785.98
2019-04-21T12:48:02.127Z,96784.28
2019-04-21T12:49:09.859Z,96784.13
2019-04-21T12:50:17.915Z,96780.27
2019-04-21T12:51:25.959Z,96780.99
2019-04-21T12:52:33.680Z,96782.58
2019-04-21T12:53:41.600Z,96782.20
2019-04-21T12:54:48.934Z,96776.20
2019-04-21T12:55:56.156Z,96781.03
2019-04-21T12:57:03.531Z,96780.88
2019-04-21T12:58:11.156Z,96781.38
2019-04-21T12:59:19.087Z,96780.83
2019-04-21T13:00:27.009Z,96779.30
2019-04-21T13:01:34.991Z,96779.06
2019-04-21T13:02:43.463Z,96769.02
2019-04-21T13:03:52.042Z,96771.22
2019-04-21T13:04:59.688Z,96781.30
2019-04-21T13:06:07.585Z,96760.89
2019-04-21T13:07:15.404Z,96761.55
2019-04-21T13:08:25.011Z,96757.06
2019-04-21T13:09:33.825Z,96753.70
2019-04-21T13:10:42.273Z,96753.92
2019-04-21T13:11:50.896Z,96758.03
2019-04-21T13:12:59.757Z,96758.79
2019-04-21T13:14:08.233Z,96749.48
2019-04-21T13:15:18.023Z,96751.84
2019-04-21T13:16:25.492Z,96756.96
2019-04-21T13:17:33.163Z,96755.50
2019-04-21T13:18:41.705Z,96750.41
2019-04-21T13:19:49.536Z,96750.93
2019-04-21T13:20:59.301Z,96746.20
2019-04-21T13:22:06.034Z,96736.39
2019-04-21T13:23:13.868Z,96740.68
2019-04-21T13:24:22.008Z,96739.77
2019-04-21T13:25:30.320Z,96733.53
2019-04-21T13:26:45.621Z,96737.19
2019-04-21T13:27:47.239Z,96732.31
2019-04-21T13:28:54.548Z,96727.92
2019-04-21T13:30:02.206Z,96721.89
2019-04-21T13:31:09.942Z,96723.91
2019-04-21T13:32:18.175Z,96720.53
2019-04-21T13:33:27.145Z,96719.20
2019-04-21T13:34:35.812Z,96722.67
2019-04-21T13:35:44.501Z,96717.56
2019-04-21T13:36:52.027Z,96712.55
2019-04-21T13:38:00.540Z,96711.32
2019-04-21T13:41:12.495Z,96710.41
2019-04-21T13:42:16.138Z,96712.31
2019-04-21T13:43:15.218Z,96714.97
2019-04-21T13:44:23.439Z,96702.76
2019-04-21T13:45:32.193Z,96702.84
2019-04-21T13:46:40.698Z,96699.42
2019-04-21T13:47:48.522Z,96706.78
2019-04-21T13:48:55.863Z,96700.74
2019-04-21T13:50:05.302Z,96705.95
2019-04-21T13:51:13.226Z,96696.02
2019-04-21T13:52:20.659Z,96691.45
2019-04-21T13:53:28.536Z,96684.48
2019-04-21T13:54:35.923Z,96687.81
2019-04-21T13:55:44.547Z,96688.72
2019-04-21T13:56:54.269Z,96680.73
2019-04-21T13:58:02.097Z,96681.34
2019-04-21T13:59:10.556Z,96684.61
2019-04-21T14:00:21.610Z,96680.98
2019-04-21T14:01:29.727Z,96675.96
2019-04-21T14:02:38.561Z,96676.41
2019-04-21T14:03:47.230Z,96680.31
2019-04-21T14:04:55.766Z,96675.41
2019-04-21T14:06:04.409Z,96668.97
2019-04-21T14:07:32.182Z,96661.07
2019-04-21T14:08:41.659Z,96664.81
2019-04-21T14:09:56.109Z,96663.70
2019-04-21T14:10:57.579Z,96665.03
2019-04-21T14:12:05.416Z,96671.53
2019-04-21T14:13:14.214Z,96668.33
2019-04-21T14:14:23.913Z,96666.12
2019-04-21T14:15:32.408Z,96669.19
2019-04-21T14:16:40.151Z,96664.98
2019-04-21T14:17:48.922Z,96662.10
2019-04-21T14:18:57.200Z,96659.83
2019-04-21T14:20:05.215Z,96662.67
2019-04-21T14:21:13.331Z,96669.42
2019-04-21T14:22:22.224Z,96663.19
2019-04-21T14:23:36.265Z,96663.83
2019-04-21T14:24:39.291Z,96658.23
2019-04-21T14:25:47.888Z,96655.53
2019-04-21T14:26:56.273Z,96651.72
2019-04-21T14:28:04.026Z,96654.45
2019-04-21T14:29:11.458Z,96650.50
2019-04-21T14:30:20.591Z,96651.48
2019-04-21T14:31:28.402Z,96641.47
2019-04-21T14:32:36.032Z,96642.34
2019-04-21T14:33:43.737Z,96644.12
2019-04-21T14:34:53.829Z,96648.66
2019-04-21T14:36:00.991Z,96650.06
2019-04-21T14:37:08.806Z,96647.61
2019-04-21T14:38:16.555Z,96648.33
2019-04-21T14:39:23.805Z,96640.35
2019-04-21T14:40:33.359Z,96643.76
2019-04-21T14:41:40.408Z,96642.02
2019-04-21T14:42:47.863Z,96643.14
2019-04-21T14:43:55.236Z,96645.94
2019-04-21T14:45:03.225Z,96644.20
2019-04-21T14:46:21.530Z,96644.71
2019-04-21T14:47:42.139Z,96640.01
2019-04-21T14:49:06.998Z,96636.12
2019-04-21T14:50:44.314Z,96634.87
2019-04-21T14:52:05.454Z,96635.89
2019-04-21T14:53:23.391Z,96632.41